Terminal Aerodrome Forecast
Issued by NWS

Current Version | Previous Version | Text Only | Print | Product List | Glossary Off
Versions: 1 2 3 4 5 6 7 8 9 10 11 12 13 14 15 16 17 18 19 20

000
FTUS41 KILN 230500
TAFLUK
TAF
KLUK 230536Z 2306/2406 VRB03KT P6SM SCT250
      TEMPO 2308/2312 4SM BR
     FM231200 VRB03KT P6SM SCT080 BKN200
     FM231400 26007KT P6SM VCTS BKN050CB
     FM231700 29009KT 5SM -SHRA BR VCTS OVC050CB
     FM232100 32010KT P6SM BKN060
     FM240000 01007KT P6SM BKN100=

USA.gov is the U.S. government's official web portal to all federal, state and local government web resources and services.